Time;durP1;ratioP1;P1;durP2;ratioP2;P2;SDS_P1;SDS_P2;PMS_P1;PMS_P2;Temp;Humidity;BMP_temperature;BMP_pressure;BME280_temperature;BME280_humidity;BME280_pressure;Samples;Min_cycle;Max_cycle;Signal;HPM_P1;HPM_P2
2021/11/10 00:01:23;;;;;;;17.43;7.83;;;7.80;88.70;;;;;;5054432;28;20458;-72
2021/11/10 00:03:48;;;;;;;19.87;8.27;;;7.80;88.90;;;;;;5055040;28;20029;-72
2021/11/10 00:06:14;;;;;;;19.07;8.90;;;7.70;88.90;;;;;;5053767;28;20056;-72
2021/11/10 00:08:40;;;;;;;17.33;7.87;;;7.70;89.00;;;;;;5055012;28;20037;-73
2021/11/10 00:11:05;;;;;;;22.67;9.40;;;7.60;89.10;;;;;;5054866;28;20059;-73
2021/11/10 00:13:31;;;;;;;16.17;8.20;;;7.70;89.30;;;;;;5054692;28;20047;-72
2021/11/10 00:15:57;;;;;;;20.07;8.00;;;7.60;89.50;;;;;;5053547;28;20409;-73
2021/11/10 00:18:22;;;;;;;22.47;8.93;;;7.50;89.70;;;;;;5053520;28;20170;-73
2021/11/10 00:20:49;;;;;;;15.57;8.83;;;7.50;89.80;;;;;;5070067;28;20025;-73
2021/11/10 00:23:15;;;;;;;17.93;7.90;;;7.50;90.20;;;;;;5054586;28;20091;-73
2021/11/10 00:25:41;;;;;;;18.73;8.07;;;7.50;90.00;;;;;;5053348;28;20396;-75
2021/11/10 00:28:06;;;;;;;18.70;8.67;;;7.40;90.00;;;;;;5053312;28;20033;-75
2021/11/10 00:30:32;;;;;;;26.77;9.10;;;7.40;90.10;;;;;;5052935;28;20405;-75
2021/11/10 00:32:58;;;;;;;21.40;8.20;;;7.40;90.10;;;;;;5053134;28;20090;-75
2021/11/10 00:35:24;;;;;;;19.20;8.03;;;7.30;90.10;;;;;;5053026;28;20362;-75
2021/11/10 00:37:50;;;;;;;18.97;8.50;;;7.30;90.10;;;;;;5054325;28;20116;-75
2021/11/10 00:40:16;;;;;;;17.33;8.60;;;7.20;90.10;;;;;;5052852;28;20053;-75
2021/11/10 00:42:41;;;;;;;14.33;7.23;;;7.30;90.20;;;;;;5054304;28;20031;-75
2021/11/10 00:45:08;;;;;;;17.50;7.40;;;7.20;90.30;;;;;;5052979;28;20056;-75
2021/11/10 00:47:34;;;;;;;13.47;8.13;;;7.10;90.40;;;;;;5053164;28;20068;-75
2021/11/10 00:50:01;;;;;;;21.13;10.17;;;7.20;90.50;;;;;;5052719;28;20025;-75
2021/11/10 00:52:26;;;;;;;18.87;8.20;;;7.10;90.50;;;;;;5052880;28;20028;-75
2021/11/10 00:54:53;;;;;;;18.43;9.07;;;7.10;90.60;;;;;;5052655;28;20074;-75
2021/11/10 00:57:19;;;;;;;20.27;9.73;;;7.00;90.60;;;;;;5053936;28;20028;-75
2021/11/10 00:59:45;;;;;;;19.47;8.37;;;7.00;90.70;;;;;;5052560;28;20496;-75
2021/11/10 01:02:10;;;;;;;24.83;8.93;;;6.90;90.70;;;;;;5053876;28;20033;-75
2021/11/10 01:04:37;;;;;;;19.93;8.93;;;6.80;90.80;;;;;;5052654;28;20104;-75
2021/11/10 01:07:03;;;;;;;19.83;8.53;;;6.90;90.80;;;;;;5053848;28;20094;-75
2021/11/10 01:09:29;;;;;;;18.00;8.93;;;6.90;90.90;;;;;;5053709;28;20036;-75
2021/11/10 01:11:55;;;;;;;20.90;8.70;;;6.90;91.00;;;;;;5052501;28;20032;-76
2021/11/10 01:14:21;;;;;;;15.97;8.37;;;6.90;91.10;;;;;;5052458;28;20028;-75
2021/11/10 01:16:47;;;;;;;16.53;8.50;;;6.90;91.10;;;;;;5052528;28;20029;-75
2021/11/10 01:19:14;;;;;;;19.97;7.97;;;6.90;91.10;;;;;;5052245;28;20129;-76
2021/11/10 01:21:39;;;;;;;22.63;8.60;;;6.80;91.20;;;;;;5052373;28;20029;-75
2021/11/10 01:24:05;;;;;;;19.40;7.87;;;6.80;91.20;;;;;;5052243;28;20385;-75
2021/11/10 01:26:31;;;;;;;19.17;8.07;;;6.70;91.30;;;;;;5052232;28;20039;-75
2021/11/10 01:28:57;;;;;;;18.60;9.27;;;6.70;91.30;;;;;;5053391;28;20071;-75
2021/11/10 01:31:23;;;;;;;16.90;8.43;;;6.60;91.30;;;;;;5053258;28;20513;-75
2021/11/10 01:33:48;;;;;;;15.40;7.23;;;6.70;91.50;;;;;;5053172;28;20481;-75
2021/11/10 01:36:14;;;;;;;17.63;9.17;;;6.60;91.50;;;;;;5052048;28;20461;-75
2021/11/10 01:38:39;;;;;;;17.47;8.40;;;6.60;91.50;;;;;;5053306;28;20028;-73
2021/11/10 01:41:05;;;;;;;16.93;7.57;;;6.50;91.60;;;;;;5052032;28;20029;-73
2021/11/10 01:43:32;;;;;;;20.17;8.53;;;6.60;91.70;;;;;;5053305;28;20025;-73
2021/11/10 01:45:58;;;;;;;19.70;8.33;;;6.50;91.60;;;;;;5052046;28;20071;-73
2021/11/10 01:48:24;;;;;;;17.90;9.00;;;6.50;91.70;;;;;;5053130;28;20413;-75
2021/11/10 01:50:51;;;;;;;16.90;9.07;;;6.50;91.80;;;;;;5053158;28;20025;-73
2021/11/10 01:53:16;;;;;;;18.33;9.00;;;6.50;91.80;;;;;;5052993;28;20511;-74
2021/11/10 01:55:43;;;;;;;21.73;9.97;;;6.50;91.90;;;;;;5053293;28;20029;-73
2021/11/10 01:58:08;;;;;;;20.43;8.93;;;6.40;92.00;;;;;;5051761;28;20021;-73
2021/11/10 02:00:38;;;;;;;17.93;9.30;;;6.60;91.80;;;;;;5053091;28;20033;-73
2021/11/10 02:03:05;;;;;;;18.07;8.77;;;6.40;91.80;;;;;;5053081;28;20091;-73
2021/11/10 02:05:31;;;;;;;16.83;8.90;;;6.40;92.00;;;;;;5051738;28;20446;-73
2021/11/10 02:07:57;;;;;;;20.73;10.37;;;6.40;91.80;;;;;;5051624;28;20123;-73
2021/11/10 02:10:24;;;;;;;17.73;8.97;;;6.40;91.90;;;;;;5051920;28;20091;-73
2021/11/10 02:12:51;;;;;;;21.67;9.20;;;6.30;91.90;;;;;;5051721;28;20036;-73
2021/11/10 02:15:19;;;;;;;17.17;8.77;;;6.30;91.90;;;;;;5053172;28;20397;-73
2021/11/10 02:17:53;;;;;;;19.47;8.73;;;6.30;92.00;;;;;;5052006;28;20025;-73
2021/11/10 02:20:19;;;;;;;18.87;8.80;;;6.20;92.00;;;;;;5051614;28;20029;-75
2021/11/10 02:22:46;;;;;;;21.47;9.27;;;6.20;92.00;;;;;;5052988;28;20029;-75
2021/11/10 02:25:13;;;;;;;18.80;9.37;;;6.10;92.10;;;;;;5054684;28;20033;-75
2021/11/10 02:27:40;;;;;;;19.23;8.43;;;6.10;92.20;;;;;;5056784;28;20076;-75
2021/11/10 02:30:13;;;;;;;19.73;8.47;;;6.10;92.20;;;;;;5055358;28;20128;-75
2021/11/10 02:32:39;;;;;;;17.43;9.03;;;6.10;92.30;;;;;;5055495;28;20093;-75
2021/11/10 02:35:06;;;;;;;15.37;7.77;;;6.00;92.30;;;;;;5055347;28;20830;-75
2021/11/10 02:37:32;;;;;;;16.60;8.73;;;6.00;92.30;;;;;;5055413;28;20079;-75
2021/11/10 02:39:58;;;;;;;19.53;8.97;;;6.00;92.30;;;;;;5055473;28;20431;-75
2021/11/10 02:42:24;;;;;;;20.30;9.00;;;6.00;92.30;;;;;;5055146;28;20034;-75
2021/11/10 02:44:52;;;;;;;17.83;9.10;;;6.00;92.40;;;;;;5056772;28;20029;-75
2021/11/10 02:47:18;;;;;;;20.47;9.03;;;5.90;92.40;;;;;;5056424;28;20025;-75
2021/11/10 02:49:44;;;;;;;20.40;9.93;;;5.90;92.40;;;;;;5056394;28;20039;-75
2021/11/10 02:52:13;;;;;;;20.90;9.37;;;5.90;92.50;;;;;;5055296;28;20820;-75
2021/11/10 02:54:48;;;;;;;18.33;8.40;;;5.80;92.50;;;;;;5054971;28;20078;-75
2021/11/10 02:57:14;;;;;;;15.53;8.47;;;5.80;92.60;;;;;;5056165;28;20033;-75
2021/11/10 02:59:40;;;;;;;22.07;8.63;;;5.80;92.60;;;;;;5054842;28;20025;-75
2021/11/10 03:02:07;;;;;;;14.90;8.03;;;5.80;92.70;;;;;;5055104;28;20128;-75
2021/11/10 03:04:41;;;;;;;16.73;8.20;;;5.80;92.70;;;;;;5056207;28;20029;-75
2021/11/10 03:07:07;;;;;;;19.73;8.83;;;5.80;92.70;;;;;;5056096;28;20033;-73
2021/11/10 03:09:35;;;;;;;16.83;9.10;;;5.70;92.80;;;;;;5055900;28;20025;-75
2021/11/10 03:12:02;;;;;;;17.67;8.87;;;5.80;92.80;;;;;;5055998;28;20036;-75
2021/11/10 03:14:30;;;;;;;17.97;8.67;;;5.70;92.80;;;;;;5054620;28;20544;-75
2021/11/10 03:16:57;;;;;;;20.97;9.97;;;5.70;92.80;;;;;;5055842;28;20029;-75
2021/11/10 03:19:22;;;;;;;20.17;8.80;;;5.70;92.90;;;;;;5054541;28;20021;-75
2021/11/10 03:21:49;;;;;;;14.70;8.47;;;5.70;92.90;;;;;;5054492;28;20029;-75
2021/11/10 03:24:15;;;;;;;20.43;7.87;;;5.70;92.90;;;;;;5055705;28;20036;-75
2021/11/10 03:26:42;;;;;;;18.37;8.43;;;5.70;93.00;;;;;;5055743;28;20029;-75
2021/11/10 03:29:07;;;;;;;16.47;8.43;;;5.60;93.00;;;;;;5054405;28;20396;-75
2021/11/10 03:31:36;;;;;;;17.30;9.23;;;5.60;93.10;;;;;;5055400;28;20053;-75
2021/11/10 03:34:04;;;;;;;20.00;9.20;;;5.60;93.10;;;;;;5054169;28;20036;-75
2021/11/10 03:36:30;;;;;;;19.20;9.57;;;5.50;93.10;;;;;;5054206;28;20539;-75
2021/11/10 03:38:56;;;;;;;21.30;8.57;;;5.50;93.10;;;;;;5037621;28;20025;-75
2021/11/10 03:41:22;;;;;;;17.23;8.23;;;5.40;93.20;;;;;;5055450;28;20017;-74
2021/11/10 03:43:51;;;;;;;19.70;8.57;;;5.50;93.20;;;;;;5055359;28;20082;-74
2021/11/10 03:46:18;;;;;;;19.37;9.50;;;5.50;93.20;;;;;;5054136;28;20029;-75
2021/11/10 03:48:44;;;;;;;17.70;8.30;;;5.40;93.30;;;;;;5054091;28;20032;-75
2021/11/10 03:51:09;;;;;;;17.73;8.27;;;5.40;93.30;;;;;;5055307;28;20084;-75
2021/11/10 03:53:35;;;;;;;18.93;8.83;;;5.40;93.30;;;;;;5054023;28;20037;-75
2021/11/10 03:56:01;;;;;;;21.37;9.23;;;5.40;93.40;;;;;;5055162;28;20389;-75
2021/11/10 03:58:27;;;;;;;20.27;9.40;;;5.40;93.40;;;;;;5055058;28;20036;-75
2021/11/10 04:00:52;;;;;;;22.23;9.23;;;5.30;93.40;;;;;;5053760;28;20116;-75
2021/11/10 04:03:18;;;;;;;19.70;9.10;;;5.30;93.40;;;;;;5053769;28;20029;-75
2021/11/10 04:05:44;;;;;;;18.17;8.63;;;5.30;93.40;;;;;;5053728;28;20035;-75
2021/11/10 04:08:10;;;;;;;21.67;10.00;;;5.30;93.60;;;;;;5053851;28;20120;-75
2021/11/10 04:10:37;;;;;;;20.00;8.70;;;5.30;93.50;;;;;;5054946;28;20037;-75
2021/11/10 04:13:04;;;;;;;20.70;8.93;;;5.30;93.50;;;;;;5054884;28;20040;-75
2021/11/10 04:15:30;;;;;;;18.47;9.07;;;5.20;93.50;;;;;;5053361;28;20462;-73
2021/11/10 04:17:56;;;;;;;20.20;9.57;;;5.20;93.80;;;;;;5054697;28;20104;-73
2021/11/10 04:20:22;;;;;;;20.47;9.63;;;5.20;93.60;;;;;;5053366;28;20366;-73
2021/11/10 04:22:48;;;;;;;19.30;9.50;;;5.20;93.90;;;;;;5053348;28;20033;-73
2021/11/10 04:25:14;;;;;;;19.83;9.60;;;5.20;93.70;;;;;;5054628;28;20091;-73
2021/11/10 04:27:40;;;;;;;20.73;9.33;;;5.20;93.70;;;;;;5053377;28;20033;-72
2021/11/10 04:30:06;;;;;;;16.23;9.10;;;5.30;93.70;;;;;;5053136;28;20039;-73
2021/11/10 04:32:32;;;;;;;16.67;8.40;;;5.20;93.70;;;;;;5054484;28;20052;-73
2021/11/10 04:34:58;;;;;;;17.40;9.20;;;5.10;93.70;;;;;;5053217;28;20450;-72
2021/11/10 04:37:23;;;;;;;16.20;8.63;;;5.10;93.80;;;;;;5036519;28;20362;-72
2021/11/10 04:39:49;;;;;;;17.43;8.53;;;5.20;93.80;;;;;;5053065;28;20029;-75
2021/11/10 04:42:15;;;;;;;22.83;11.10;;;5.20;93.90;;;;;;5054400;28;20515;-74
2021/11/10 04:44:40;;;;;;;19.77;9.93;;;5.10;93.80;;;;;;5054227;28;20029;-74
2021/11/10 04:47:06;;;;;;;19.70;8.70;;;5.10;93.80;;;;;;5052739;28;20450;-75
2021/11/10 04:49:32;;;;;;;20.97;9.20;;;5.10;93.80;;;;;;5054179;28;20377;-74
2021/11/10 04:52:00;;;;;;;20.90;9.67;;;5.10;93.80;;;;;;5053010;28;20036;-75
2021/11/10 04:54:30;;;;;;;21.57;9.60;;;5.10;93.80;;;;;;5053897;28;20066;-75
2021/11/10 04:57:00;;;;;;;15.00;8.50;;;5.10;93.90;;;;;;5053995;28;20100;-75
2021/11/10 04:59:26;;;;;;;17.67;9.20;;;5.00;93.80;;;;;;5051588;28;20032;-75
2021/11/10 05:04:30;;;;;;;19.57;8.23;;;5.00;93.90;;;;;;5032755;28;20171;-75
2021/11/10 05:06:55;;;;;;;21.73;8.77;;;4.90;93.90;;;;;;5032395;28;20544;-75
2021/11/10 05:09:21;;;;;;;15.33;8.27;;;5.00;94.20;;;;;;5033757;28;20037;-75
2021/11/10 05:11:47;;;;;;;17.60;8.27;;;4.90;94.00;;;;;;5032689;28;20115;-75
2021/11/10 05:14:12;;;;;;;17.57;8.97;;;4.90;94.00;;;;;;5033780;28;20108;-75
2021/11/10 05:16:38;;;;;;;20.20;8.73;;;4.90;94.00;;;;;;5033714;28;20359;-75
2021/11/10 05:19:04;;;;;;;19.37;9.40;;;4.90;94.10;;;;;;5033659;28;20029;-75
2021/11/10 05:21:29;;;;;;;16.87;8.70;;;4.80;94.10;;;;;;5033525;28;20021;-75
2021/11/10 05:23:55;;;;;;;15.10;8.57;;;4.80;94.10;;;;;;5033517;28;20532;-75
2021/11/10 05:26:21;;;;;;;19.03;8.97;;;4.80;94.10;;;;;;5048891;28;20087;-75
2021/11/10 05:28:47;;;;;;;18.13;9.33;;;4.80;94.20;;;;;;5048752;28;20075;-75
2021/11/10 05:31:12;;;;;;;20.67;8.37;;;4.70;94.20;;;;;;5048529;28;20045;-75
2021/11/10 05:33:38;;;;;;;18.63;9.03;;;4.70;94.20;;;;;;5033302;28;20532;-75
2021/11/10 05:36:04;;;;;;;19.23;8.93;;;4.70;94.20;;;;;;5033423;28;20113;-75
2021/11/10 05:38:30;;;;;;;20.20;9.17;;;4.70;94.30;;;;;;5048635;28;20064;-75
2021/11/10 05:40:55;;;;;;;21.93;8.80;;;4.70;94.30;;;;;;5048938;28;20025;-75
2021/11/10 05:43:21;;;;;;;17.00;8.53;;;4.70;94.30;;;;;;5033303;28;20025;-75
2021/11/10 05:45:47;;;;;;;15.23;8.20;;;4.70;94.40;;;;;;5071632;28;20051;-75
2021/11/10 05:48:13;;;;;;;16.80;8.87;;;4.70;94.40;;;;;;5052075;28;20021;-75
2021/11/10 05:50:39;;;;;;;18.57;8.93;;;4.60;94.40;;;;;;5045768;28;20465;-75
2021/11/10 05:53:04;;;;;;;17.70;8.57;;;4.60;94.50;;;;;;5048373;28;20036;-74
2021/11/10 05:55:30;;;;;;;16.17;9.37;;;4.60;94.50;;;;;;5031539;28;20072;-75
2021/11/10 05:57:57;;;;;;;18.97;8.83;;;4.70;94.50;;;;;;5032048;28;20486;-74
2021/11/10 06:00:22;;;;;;;19.93;9.37;;;4.60;94.40;;;;;;5031597;28;20057;-75
2021/11/10 06:02:49;;;;;;;19.07;9.43;;;4.60;94.50;;;;;;5033349;28;20122;-75
2021/11/10 06:05:16;;;;;;;18.47;9.03;;;4.60;94.50;;;;;;5033337;28;20025;-75
2021/11/10 06:07:44;;;;;;;17.20;8.67;;;4.60;94.50;;;;;;5015853;28;20049;-75
2021/11/10 06:10:10;;;;;;;15.97;8.97;;;4.60;94.50;;;;;;5033411;28;20025;-75
2021/11/10 06:12:36;;;;;;;18.13;9.83;;;4.60;94.50;;;;;;5033175;28;20496;-75
2021/11/10 06:15:02;;;;;;;19.10;10.10;;;4.50;94.50;;;;;;5033377;28;20108;-75
2021/11/10 06:17:28;;;;;;;19.50;9.27;;;4.50;94.80;;;;;;5039565;28;20355;-75
2021/11/10 06:19:53;;;;;;;24.03;9.50;;;4.50;94.60;;;;;;5048065;28;20117;-73
2021/11/10 06:22:19;;;;;;;20.33;9.87;;;4.50;94.90;;;;;;5048321;28;20120;-73
2021/11/10 06:24:44;;;;;;;21.40;9.90;;;4.40;94.90;;;;;;5031896;28;20474;-73
2021/11/10 06:27:10;;;;;;;19.07;9.33;;;4.50;94.90;;;;;;5045231;28;20087;-73
2021/11/10 06:29:36;;;;;;;19.80;9.53;;;4.40;94.60;;;;;;5036924;28;20036;-73
2021/11/10 06:32:02;;;;;;;19.17;9.67;;;4.40;94.70;;;;;;5053688;28;20065;-73
2021/11/10 06:34:29;;;;;;;20.67;10.27;;;4.40;94.70;;;;;;5039267;28;20030;-73
2021/11/10 06:36:55;;;;;;;23.10;9.20;;;4.40;94.80;;;;;;5015499;28;20021;-74
2021/11/10 06:39:21;;;;;;;23.20;10.10;;;4.40;94.80;;;;;;5032473;28;20025;-72
2021/11/10 06:41:47;;;;;;;20.90;9.30;;;4.40;94.70;;;;;;5026803;28;20032;-75
2021/11/10 06:44:13;;;;;;;17.67;10.17;;;4.30;94.70;;;;;;5052128;28;20116;-73
2021/11/10 06:46:38;;;;;;;23.77;10.03;;;4.30;94.80;;;;;;5051468;28;20024;-73
2021/11/10 06:49:05;;;;;;;18.67;10.53;;;4.30;94.80;;;;;;5051713;28;20029;-73
2021/11/10 06:51:31;;;;;;;27.27;11.23;;;4.30;94.80;;;;;;5034726;28;20025;-70
2021/11/10 06:53:57;;;;;;;21.37;10.20;;;4.30;94.80;;;;;;5051401;28;20120;-71
2021/11/10 06:56:23;;;;;;;22.10;10.33;;;4.30;94.80;;;;;;5051760;28;20160;-71
2021/11/10 06:58:49;;;;;;;20.67;11.10;;;4.20;94.90;;;;;;5050298;28;20082;-71
2021/11/10 07:01:15;;;;;;;20.43;10.20;;;4.20;94.90;;;;;;5050234;28;20029;-70
2021/11/10 07:03:41;;;;;;;23.77;11.30;;;4.20;95.00;;;;;;5052248;28;20378;-70
2021/11/10 07:06:07;;;;;;;18.13;10.07;;;4.10;95.00;;;;;;5051447;28;20044;-71
2021/11/10 07:08:32;;;;;;;20.40;9.77;;;4.20;95.10;;;;;;5052919;28;20071;-71
2021/11/10 07:10:58;;;;;;;20.20;10.10;;;4.10;95.10;;;;;;5052700;28;20388;-72
2021/11/10 07:13:25;;;;;;;21.17;9.70;;;4.20;95.20;;;;;;5054544;28;20031;-72
2021/11/10 07:15:51;;;;;;;17.50;9.77;;;4.20;95.30;;;;;;5054311;28;20063;-71
2021/11/10 07:18:16;;;;;;;18.00;10.90;;;4.10;95.30;;;;;;5056083;28;20039;-72
2021/11/10 07:20:43;;;;;;;22.30;10.43;;;4.20;95.50;;;;;;5054273;28;20473;-71
2021/11/10 07:23:09;;;;;;;19.13;10.40;;;4.20;95.70;;;;;;5054515;28;20029;-70
2021/11/10 07:25:35;;;;;;;22.03;10.30;;;4.30;95.90;;;;;;5054218;28;20029;-71
2021/11/10 07:28:01;;;;;;;20.00;9.63;;;4.40;95.90;;;;;;5053869;28;20029;-71
2021/11/10 07:30:27;;;;;;;19.13;10.23;;;4.50;95.80;;;;;;5036600;28;20091;-71
2021/11/10 07:32:53;;;;;;;21.90;10.63;;;4.60;95.80;;;;;;5060357;28;20555;-71
2021/11/10 07:35:18;;;;;;;20.90;9.93;;;4.70;95.90;;;;;;5058963;28;20021;-74
2021/11/10 07:37:46;;;;;;;24.37;10.63;;;4.60;95.80;;;;;;5087899;28;20436;-74
2021/11/10 07:40:13;;;;;;;19.00;10.10;;;4.70;95.90;;;;;;5054170;28;20033;-74
2021/11/10 07:42:39;;;;;;;25.67;11.93;;;4.70;95.80;;;;;;5055229;28;20021;-74
2021/11/10 07:45:08;;;;;;;24.70;11.53;;;4.80;95.80;;;;;;5055817;28;20335;-73
2021/11/10 07:47:40;;;;;;;18.00;10.47;;;4.80;95.80;;;;;;5055562;28;20033;-74
2021/11/10 07:50:09;;;;;;;22.80;10.93;;;4.90;95.80;;;;;;5054464;28;20036;-74
2021/11/10 07:52:35;;;;;;;22.73;11.27;;;4.90;95.80;;;;;;5053669;28;20338;-73
2021/11/10 07:55:00;;;;;;;19.60;10.73;;;5.00;95.80;;;;;;5053837;28;20079;-74
2021/11/10 07:57:26;;;;;;;25.57;12.43;;;5.00;95.70;;;;;;5054891;28;20541;-74
2021/11/10 07:59:51;;;;;;;23.60;11.53;;;5.00;95.70;;;;;;5055105;28;20029;-74
2021/11/10 08:02:18;;;;;;;18.23;10.00;;;5.00;95.70;;;;;;5054165;28;20104;-74
2021/11/10 08:04:43;;;;;;;27.33;12.00;;;5.10;95.80;;;;;;5053499;28;20025;-74
2021/11/10 08:07:09;;;;;;;26.13;12.10;;;5.10;95.80;;;;;;5053775;28;20048;-74
2021/11/10 08:09:34;;;;;;;21.13;10.70;;;5.20;95.80;;;;;;5052868;28;20143;-74
2021/11/10 08:12:00;;;;;;;22.50;11.67;;;5.20;95.80;;;;;;5086599;28;20037;-74
2021/11/10 08:14:26;;;;;;;22.23;11.33;;;5.30;95.80;;;;;;5053962;28;20040;-74
2021/11/10 08:16:52;;;;;;;23.13;12.07;;;5.40;95.90;;;;;;5050220;28;20155;-74
2021/11/10 08:19:18;;;;;;;21.53;11.93;;;5.50;95.90;;;;;;5086840;28;20041;-74
2021/11/10 08:21:43;;;;;;;23.77;11.90;;;5.60;96.00;;;;;;5053297;28;20029;-75
2021/11/10 08:24:09;;;;;;;22.93;10.07;;;5.70;96.00;;;;;;5053130;28;20025;-75
2021/11/10 08:26:35;;;;;;;23.27;10.80;;;5.70;96.00;;;;;;5037108;28;20064;-74
2021/11/10 08:29:00;;;;;;;23.53;10.50;;;5.80;96.00;;;;;;5053910;28;20400;-75
2021/11/10 08:31:26;;;;;;;22.00;11.40;;;5.90;96.00;;;;;;5036774;28;20049;-75
2021/11/10 08:33:52;;;;;;;21.53;11.23;;;6.00;95.90;;;;;;5054615;28;20091;-74
2021/11/10 08:36:17;;;;;;;29.17;11.00;;;6.00;95.80;;;;;;5054838;28;20028;-75
2021/11/10 08:38:43;;;;;;;25.53;10.87;;;6.10;95.80;;;;;;5054356;28;20021;-75
2021/11/10 08:41:09;;;;;;;23.20;11.20;;;6.10;95.70;;;;;;5053176;28;20028;-75
2021/11/10 08:43:36;;;;;;;25.77;12.07;;;6.10;95.60;;;;;;5036984;28;20073;-75
2021/11/10 08:46:01;;;;;;;20.33;10.67;;;6.20;95.60;;;;;;5054380;28;20036;-75
2021/11/10 08:48:28;;;;;;;19.40;9.73;;;6.30;95.60;;;;;;5054329;28;20090;-74
2021/11/10 08:50:56;;;;;;;20.37;10.43;;;6.40;95.60;;;;;;5054221;28;20381;-75
2021/11/10 08:53:22;;;;;;;18.43;10.87;;;6.50;95.50;;;;;;5036455;28;20481;-74
2021/11/10 08:55:50;;;;;;;23.23;12.23;;;6.40;95.40;;;;;;5049883;28;20021;-74
2021/11/10 08:58:17;;;;;;;22.97;12.57;;;6.40;95.30;;;;;;5053869;28;20021;-74
2021/11/10 09:00:43;;;;;;;23.17;11.37;;;6.50;95.20;;;;;;5035534;28;20066;-74
2021/11/10 09:03:09;;;;;;;20.67;10.90;;;6.50;95.20;;;;;;5052239;28;20028;-74
2021/11/10 09:05:35;;;;;;;24.00;10.17;;;6.50;95.10;;;;;;5051941;28;20025;-74
2021/11/10 09:08:02;;;;;;;19.80;11.13;;;6.50;95.10;;;;;;5035725;28;20029;-74
2021/11/10 09:10:28;;;;;;;20.90;10.50;;;6.60;95.10;;;;;;5052434;28;20040;-74
2021/11/10 09:12:54;;;;;;;19.30;10.60;;;6.70;95.10;;;;;;5052707;28;20033;-74
2021/11/10 09:15:21;;;;;;;28.13;10.33;;;6.70;95.10;;;;;;5052471;28;20040;-73
2021/11/10 09:17:48;;;;;;;18.13;11.07;;;6.80;95.20;;;;;;5052355;28;20075;-74
2021/11/10 09:20:17;;;;;;;20.40;10.33;;;7.00;95.20;;;;;;5052426;28;20108;-74
2021/11/10 09:22:44;;;;;;;20.17;10.17;;;7.10;95.10;;;;;;5052283;28;20104;-75
2021/11/10 09:25:12;;;;;;;17.97;10.47;;;7.30;95.00;;;;;;5053838;28;20052;-74
2021/11/10 09:27:39;;;;;;;18.57;9.33;;;7.50;95.10;;;;;;5053535;28;20037;-75
2021/11/10 09:30:08;;;;;;;19.77;8.73;;;7.90;95.30;;;;;;5051091;28;20036;-75
2021/11/10 09:32:34;;;;;;;16.83;8.63;;;8.30;95.80;;;;;;5052780;28;20501;-74
2021/11/10 09:35:00;;;;;;;16.23;7.70;;;8.90;96.30;;;;;;5052396;28;20111;-73
2021/11/10 09:37:27;;;;;;;13.00;6.28;;;9.60;96.70;;;;;;5034768;28;20124;-73
2021/11/10 09:39:53;;;;;;;13.85;5.90;;;10.20;96.70;;;;;;5051913;28;20111;-71
2021/11/10 09:42:23;;;;;;;14.70;6.70;;;11.00;96.70;;;;;;5053004;28;20103;-72
2021/11/10 09:44:49;;;;;;;13.85;6.25;;;11.90;96.90;;;;;;5052759;28;20047;-72
2021/11/10 09:47:15;;;;;;;13.75;6.70;;;12.70;96.10;;;;;;5052466;28;20062;-72
2021/11/10 09:49:41;;;;;;;11.50;5.20;;;13.30;95.10;;;;;;5051450;28;20488;-72
2021/11/10 09:52:07;;;;;;;13.52;5.00;;;13.80;94.10;;;;;;5035241;28;20060;-71
2021/11/10 09:54:32;;;;;;;15.13;5.70;;;14.30;92.80;;;;;;5050503;28;20025;-71
2021/11/10 09:56:58;;;;;;;12.43;6.38;;;14.80;92.10;;;;;;5051502;28;20025;-71
2021/11/10 09:59:25;;;;;;;13.65;5.28;;;15.40;90.70;;;;;;5050648;28;20055;-71
2021/11/10 10:01:51;;;;;;;10.40;5.30;;;16.00;89.50;;;;;;5047739;28;20028;-71
2021/11/10 10:04:17;;;;;;;11.27;4.97;;;16.60;87.30;;;;;;5048583;28;20416;-71
2021/11/10 10:06:44;;;;;;;13.02;5.18;;;16.80;84.50;;;;;;5052801;28;20044;-71
2021/11/10 10:09:12;;;;;;;10.13;5.80;;;16.80;81.70;;;;;;5052364;28;20044;-71
2021/11/10 10:11:38;;;;;;;12.40;5.78;;;16.90;78.70;;;;;;5051469;28;20037;-71
2021/11/10 10:14:03;;;;;;;13.57;5.82;;;17.00;76.20;;;;;;5052095;28;20041;-71
2021/11/10 10:16:30;;;;;;;8.38;4.65;;;17.40;74.80;;;;;;5052837;28;20037;-71
2021/11/10 10:19:11;;;;;;;12.63;5.40;;;18.00;72.90;;;;;;5052037;28;20040;-71
2021/11/10 10:21:40;;;;;;;11.88;4.20;;;18.50;69.40;;;;;;5052958;28;20009;-71
2021/11/10 10:24:08;;;;;;;10.48;4.85;;;19.00;68.50;;;;;;5052850;28;20029;-71
2021/11/10 10:26:35;;;;;;;8.95;3.80;;;19.20;67.00;;;;;;5051809;28;20481;-71
2021/11/10 10:29:07;;;;;;;11.32;4.25;;;19.50;65.70;;;;;;5052598;28;20018;-72
2021/11/10 10:31:35;;;;;;;10.43;4.32;;;19.80;64.80;;;;;;5052924;28;20048;-71
2021/11/10 10:34:07;;;;;;;11.95;4.70;;;20.10;63.40;;;;;;5052825;28;20025;-72
2021/11/10 10:36:36;;;;;;;9.57;4.30;;;20.50;61.10;;;;;;5051688;28;20023;-71
2021/11/10 10:39:09;;;;;;;10.35;4.40;;;20.80;59.80;;;;;;5052753;28;20474;-72
2021/11/10 10:41:39;;;;;;;;;;;21.20;57.60;;;;;;5052039;28;20063;-71
2021/11/10 10:44:08;;;;;;;12.40;4.60;;;21.50;57.70;;;;;;5052266;28;19904;-72
2021/11/10 10:46:39;;;;;;;12.55;4.93;;;21.60;57.80;;;;;;5055000;28;20108;-72
2021/11/10 10:49:18;;;;;;;14.63;4.95;;;21.80;56.50;;;;;;5055782;28;20025;-72
2021/11/10 10:51:47;;;;;;;10.13;4.50;;;22.00;53.40;;;;;;5056444;28;20033;-71
2021/11/10 10:54:13;;;;;;;12.77;5.05;;;22.30;53.20;;;;;;5038717;28;20032;-72
2021/11/10 10:56:43;;;;;;;9.80;4.45;;;22.40;52.70;;;;;;5055148;28;20037;-72
2021/11/10 10:59:13;;;;;;;9.55;4.53;;;22.60;52.30;;;;;;5055143;28;20386;-73
2021/11/10 11:01:38;;;;;;;11.38;4.65;;;22.70;51.40;;;;;;5056016;28;20500;-73
2021/11/10 11:04:04;;;;;;;10.77;4.65;;;22.50;50.10;;;;;;5054908;28;20272;-73
2021/11/10 11:06:38;;;;;;;8.38;4.35;;;22.10;49.30;;;;;;5055041;28;20108;-73
2021/11/10 11:09:14;;;;;;;11.38;5.15;;;21.70;49.60;;;;;;5055567;28;20033;-73
2021/11/10 11:11:56;;;;;;;12.40;5.60;;;21.40;49.70;;;;;;5053231;28;20021;-75
2021/11/10 11:14:53;;;;;;;10.50;3.95;;;21.40;49.90;;;;;;5055829;28;20400;-75
2021/11/10 11:17:19;;;;;;;9.88;3.72;;;21.10;50.00;;;;;;5054764;28;20017;-74
2021/11/10 11:19:57;;;;;;;13.18;4.80;;;20.80;50.20;;;;;;5055973;28;20040;-74
2021/11/10 11:22:27;;;;;;;10.13;4.82;;;20.40;50.30;;;;;;5055855;28;20079;-74
2021/11/10 11:24:53;;;;;;;12.13;4.57;;;20.10;50.40;;;;;;5055853;28;20052;-74
2021/11/10 11:27:28;;;;;;;9.15;4.80;;;19.70;50.60;;;;;;5054193;28;20021;-73
2021/11/10 11:30:01;;;;;;;10.13;5.20;;;19.40;50.90;;;;;;5054083;28;20044;-74
2021/11/10 11:32:30;;;;;;;11.00;5.93;;;19.00;51.10;;;;;;5055299;28;20095;-76
2021/11/10 11:35:05;;;;;;;11.23;5.43;;;18.70;51.70;;;;;;5056481;28;20112;-77
2021/11/10 11:37:31;;;;;;;11.45;5.97;;;18.50;52.30;;;;;;5056173;28;20112;-77
2021/11/10 11:40:11;;;;;;;9.43;5.55;;;18.60;52.50;;;;;;5055458;28;20021;-76
2021/11/10 11:42:37;;;;;;;12.85;6.00;;;18.60;53.00;;;;;;5054335;28;20021;-76
2021/11/10 11:45:05;;;;;;;14.27;6.45;;;18.70;52.30;;;;;;5054158;28;20389;-76
2021/11/10 11:47:30;;;;;;;13.02;5.75;;;18.80;52.10;;;;;;5053933;28;20033;-76
2021/11/10 11:50:02;;;;;;;13.00;6.10;;;18.80;52.10;;;;;;5055513;28;20123;-76
2021/11/10 11:52:31;;;;;;;13.80;5.70;;;18.80;52.30;;;;;;5053837;28;20499;-76
2021/11/10 11:55:11;;;;;;;11.05;5.47;;;18.90;52.10;;;;;;5055124;28;20550;-77
2021/11/10 11:57:39;;;;;;;13.38;5.75;;;18.80;52.10;;;;;;5053956;28;20017;-77
2021/11/10 12:00:07;;;;;;;12.63;5.53;;;18.90;52.40;;;;;;5053516;28;20079;-77
2021/11/10 12:02:39;;;;;;;12.18;5.53;;;19.00;52.50;;;;;;5054865;28;20029;-76
2021/11/10 12:05:20;;;;;;;10.88;5.43;;;19.10;52.40;;;;;;5054942;28;20116;-76
2021/11/10 12:07:53;;;;;;;13.70;5.47;;;19.20;52.40;;;;;;5054955;28;20025;-77
2021/11/10 12:10:21;;;;;;;11.63;5.97;;;19.30;52.40;;;;;;5054735;28;20025;-77
2021/11/10 12:13:06;;;;;;;12.52;5.45;;;19.40;52.40;;;;;;5053413;28;20033;-77
2021/11/10 12:15:57;;;;;;;13.98;6.65;;;19.50;52.40;;;;;;5053166;28;20370;-77
2021/11/10 12:18:23;;;;;;;13.40;5.35;;;19.60;51.90;;;;;;5054567;28;20509;-77
2021/11/10 12:21:01;;;;;;;12.57;6.30;;;19.60;52.00;;;;;;5053908;28;20811;-77
2021/11/10 12:23:49;;;;;;;13.98;6.40;;;19.40;52.10;;;;;;5054835;28;20029;-77
2021/11/10 12:26:14;;;;;;;12.75;6.28;;;19.40;52.10;;;;;;5048108;28;20034;-77
2021/11/10 12:28:57;;;;;;;10.43;6.07;;;19.20;52.20;;;;;;5053493;28;20086;-77
2021/11/10 12:31:33;;;;;;;14.35;6.68;;;19.10;52.20;;;;;;5054272;28;20096;-76
2021/11/10 12:34:24;;;;;;;11.88;6.07;;;18.90;52.30;;;;;;5054226;28;20036;-77
2021/11/10 12:36:57;;;;;;;15.60;7.15;;;18.70;52.50;;;;;;5074183;28;20045;-77
2021/11/10 12:39:43;;;;;;;14.00;6.68;;;18.50;52.70;;;;;;5054467;28;20045;-77
2021/11/10 12:42:14;;;;;;;12.98;6.03;;;18.30;53.70;;;;;;5053526;28;20025;-77
2021/11/10 12:44:45;;;;;;;16.65;6.78;;;18.20;53.20;;;;;;5046025;28;20037;-76
2021/11/10 12:47:15;;;;;;;14.30;6.75;;;18.00;53.30;;;;;;5050567;28;20052;-77